createdAt,value
2023-03-21T00:01:54.752Z,10.90
2023-03-21T00:04:23.283Z,10.90
2023-03-21T00:06:50.872Z,10.90
2023-03-21T00:09:17.925Z,10.90
2023-03-21T00:11:45.159Z,10.90
2023-03-21T00:14:14.557Z,10.90
2023-03-21T00:16:42.101Z,10.90
2023-03-21T00:19:10.290Z,11.00
2023-03-21T00:21:51.953Z,11.00
2023-03-21T00:24:25.435Z,10.90
2023-03-21T00:26:52.338Z,10.90
2023-03-21T00:29:19.297Z,10.90
2023-03-21T00:31:46.951Z,10.90
2023-03-21T00:34:13.913Z,11.00
2023-03-21T00:36:40.831Z,11.00
2023-03-21T00:39:08.918Z,11.00
2023-03-21T00:41:42.624Z,11.00
2023-03-21T00:44:13.586Z,11.00
2023-03-21T00:46:54.428Z,11.00
2023-03-21T00:49:27.877Z,11.10
2023-03-21T00:51:55.319Z,11.10
2023-03-21T00:54:24.411Z,11.10
2023-03-21T00:56:51.341Z,11.10
2023-03-21T00:59:18.161Z,11.10
2023-03-21T01:01:46.442Z,11.10
2023-03-21T01:04:16.425Z,11.00
2023-03-21T01:06:44.452Z,11.00
2023-03-21T01:09:16.438Z,11.00
2023-03-21T01:11:43.867Z,11.00
2023-03-21T01:14:22.013Z,11.00
2023-03-21T01:16:54.043Z,11.00
2023-03-21T01:19:37.634Z,10.90
2023-03-21T01:22:12.080Z,10.80
2023-03-21T01:24:46.850Z,10.90
2023-03-21T01:27:19.771Z,10.90
2023-03-21T01:29:48.631Z,10.90
2023-03-21T01:32:15.535Z,10.90
2023-03-21T01:34:42.343Z,10.90
2023-03-21T01:37:09.327Z,10.80
2023-03-21T01:39:43.365Z,10.90
2023-03-21T01:42:13.494Z,10.90
2023-03-21T01:44:58.532Z,10.90
2023-03-21T01:47:33.295Z,10.90
2023-03-21T01:50:29.417Z,10.90
2023-03-21T01:53:03.982Z,10.90
2023-03-21T01:55:34.305Z,10.80
2023-03-21T01:58:10.258Z,10.80
2023-03-21T02:00:57.623Z,10.90
2023-03-21T02:03:38.258Z,10.80
2023-03-21T02:06:31.632Z,10.90
2023-03-21T02:09:09.927Z,10.90
2023-03-21T02:11:38.841Z,11.00
2023-03-21T02:14:07.628Z,10.70
2023-03-21T02:16:58.336Z,10.90
2023-03-21T02:20:12.071Z,10.90
2023-03-21T02:22:57.556Z,11.00
2023-03-21T02:25:53.260Z,10.90
2023-03-21T02:28:39.683Z,10.90
2023-03-21T02:31:37.550Z,11.00
2023-03-21T02:34:25.875Z,10.90
2023-03-21T02:37:01.745Z,10.90
2023-03-21T02:39:40.621Z,10.90
2023-03-21T02:42:21.715Z,10.90
2023-03-21T02:45:08.746Z,11.00
2023-03-21T02:47:55.476Z,11.00
2023-03-21T02:50:27.768Z,10.90
2023-03-21T02:52:55.627Z,10.90
2023-03-21T02:55:27.028Z,11.00
2023-03-21T02:58:11.658Z,11.00
2023-03-21T03:00:42.746Z,11.00
2023-03-21T03:03:18.020Z,11.00
2023-03-21T03:05:56.051Z,11.00
2023-03-21T03:08:56.301Z,11.00
2023-03-21T03:11:32.623Z,11.00
2023-03-21T03:14:31.579Z,10.90
2023-03-21T03:17:07.656Z,10.90
2023-03-21T03:19:57.146Z,10.90
2023-03-21T03:22:34.062Z,10.90
2023-03-21T03:25:19.760Z,10.90
2023-03-21T03:27:56.243Z,11.00
2023-03-21T03:30:29.656Z,10.90
2023-03-21T03:33:02.995Z,11.00
2023-03-21T03:35:30.455Z,11.00
2023-03-21T03:38:02.044Z,11.00
2023-03-21T03:40:45.910Z,11.00
2023-03-21T03:43:43.379Z,11.00
2023-03-21T03:46:17.912Z,11.00
2023-03-21T03:48:54.717Z,11.00
2023-03-21T03:51:53.040Z,11.00
2023-03-21T03:54:36.870Z,11.00
2023-03-21T03:57:05.939Z,11.00
2023-03-21T03:59:38.204Z,11.00
2023-03-21T04:02:22.059Z,11.00
2023-03-21T04:04:52.867Z,11.00
2023-03-21T04:07:21.437Z,11.00
2023-03-21T04:09:49.805Z,11.00
2023-03-21T04:12:19.657Z,10.90
2023-03-21T04:15:10.825Z,11.00
2023-03-21T04:17:41.341Z,11.00
2023-03-21T04:20:15.078Z,11.00
2023-03-21T04:22:45.480Z,11.00
2023-03-21T04:25:21.825Z,11.00
2023-03-21T04:27:55.698Z,11.00
2023-03-21T04:30:37.681Z,11.00
2023-03-21T04:33:10.326Z,11.00
2023-03-21T04:35:38.963Z,11.00
2023-03-21T04:38:08.061Z,11.00
2023-03-21T04:40:35.516Z,11.00
2023-03-21T04:43:02.770Z,11.00
2023-03-21T04:45:29.545Z,11.00
2023-03-21T04:47:57.335Z,11.00
2023-03-21T04:50:24.760Z,11.00
2023-03-21T04:52:51.629Z,11.00
2023-03-21T04:55:21.614Z,11.00
2023-03-21T04:57:48.830Z,11.00
2023-03-21T05:00:15.950Z,11.00
2023-03-21T05:02:43.970Z,11.00
2023-03-21T05:05:12.050Z,11.10
2023-03-21T05:07:40.835Z,11.10
2023-03-21T05:10:11.970Z,11.10
2023-03-21T05:12:41.327Z,11.10
2023-03-21T05:15:09.180Z,11.10
2023-03-21T05:17:37.045Z,11.20
2023-03-21T05:20:05.581Z,11.20
2023-03-21T05:22:40.238Z,11.20
2023-03-21T05:25:10.380Z,11.20
2023-03-21T05:27:57.411Z,11.30
2023-03-21T05:30:28.149Z,11.30
2023-03-21T05:32:58.786Z,11.30
2023-03-21T05:35:26.966Z,11.30
2023-03-21T05:37:55.999Z,11.30
2023-03-21T05:40:24.530Z,11.30
2023-03-21T05:42:52.254Z,11.30
2023-03-21T05:45:22.792Z,11.30
2023-03-21T05:47:51.484Z,11.30
2023-03-21T05:50:20.426Z,11.30
2023-03-21T05:53:00.425Z,11.30
2023-03-21T05:55:27.325Z,11.30
2023-03-21T05:57:55.506Z,11.30
2023-03-21T06:00:27.014Z,11.30
2023-03-21T06:03:11.952Z,11.30
2023-03-21T06:05:55.353Z,11.30
2023-03-21T06:08:25.919Z,11.30
2023-03-21T06:10:52.892Z,11.30
2023-03-21T06:13:19.618Z,11.30
2023-03-21T06:15:46.639Z,11.30
2023-03-21T06:18:17.965Z,11.40
2023-03-21T06:20:57.392Z,11.40
2023-03-21T06:23:24.251Z,11.30
2023-03-21T06:25:51.609Z,11.30
2023-03-21T06:28:18.736Z,11.30
2023-03-21T06:30:45.516Z,11.20
2023-03-21T06:33:24.816Z,11.30
2023-03-21T06:35:57.245Z,11.20
2023-03-21T06:38:25.585Z,11.20
2023-03-21T06:40:53.304Z,11.20
2023-03-21T06:43:22.242Z,11.20
2023-03-21T06:45:50.557Z,11.20
2023-03-21T06:48:17.366Z,11.40
2023-03-21T06:50:50.581Z,11.40
2023-03-21T06:53:20.936Z,11.40
2023-03-21T06:56:12.172Z,11.50
2023-03-21T06:58:41.062Z,11.50
2023-03-21T07:01:14.656Z,11.50
2023-03-21T07:03:53.581Z,11.50
2023-03-21T07:06:23.013Z,11.50
2023-03-21T07:08:49.834Z,11.50
2023-03-21T07:11:16.947Z,11.50
2023-03-21T07:13:46.689Z,11.50
2023-03-21T07:16:13.545Z,11.40
2023-03-21T07:18:40.410Z,11.40
2023-03-21T07:21:07.451Z,11.40
2023-03-21T07:23:34.683Z,11.40
2023-03-21T07:26:01.593Z,11.50
2023-03-21T07:28:28.570Z,11.50
2023-03-21T07:30:59.005Z,11.50
2023-03-21T07:33:26.368Z,11.60
2023-03-21T07:35:57.960Z,11.60
2023-03-21T07:38:25.342Z,11.70
2023-03-21T07:40:52.557Z,11.80
2023-03-21T07:43:19.831Z,11.80
2023-03-21T07:45:47.116Z,11.80
2023-03-21T07:48:14.717Z,11.80
2023-03-21T07:50:50.717Z,11.80
2023-03-21T07:53:19.709Z,11.80
2023-03-21T07:55:56.294Z,11.70
2023-03-21T07:58:28.292Z,11.70
2023-03-21T08:00:58.112Z,11.70
2023-03-21T08:03:26.543Z,11.70
